Time;durP1;ratioP1;P1;durP2;ratioP2;P2;SDS_P1;SDS_P2;PMS_P1;PMS_P2;Temp;Humidity;BMP_temperature;BMP_pressure;BME280_temperature;BME280_humidity;BME280_pressure;Samples;Min_cycle;Max_cycle;Signal;HPM_P1;HPM_P2
2023/07/13 00:01:32;;;;;;;9.38;5.07;;;13.70;99.90;;;;;;5057398;28;20199;-89
2023/07/13 00:04:03;;;;;;;12.65;4.90;;;13.60;99.90;;;;;;5074192;28;20188;-88
2023/07/13 00:06:36;;;;;;;6.45;4.50;;;13.60;99.90;;;;;;5068231;28;20214;-88
2023/07/13 00:09:08;;;;;;;8.18;4.30;;;13.70;99.90;;;;;;5055492;28;20204;-89
2023/07/13 00:11:41;;;;;;;6.30;4.43;;;13.90;99.90;;;;;;5055579;28;20228;-88
2023/07/13 00:14:13;;;;;;;6.32;4.63;;;14.00;99.90;;;;;;5064121;28;20201;-88
2023/07/13 00:16:45;;;;;;;8.68;5.22;;;14.10;99.90;;;;;;5076897;28;20229;-88
2023/07/13 00:19:17;;;;;;;8.25;4.80;;;14.10;99.90;;;;;;5077093;28;20204;-88
2023/07/13 00:21:48;;;;;;;8.00;4.88;;;14.20;99.90;;;;;;5078549;28;20224;-88
2023/07/13 00:24:23;;;;;;;5.53;4.20;;;14.40;99.90;;;;;;5074098;28;20192;-89
2023/07/13 00:26:58;;;;;;;5.15;3.60;;;14.50;99.90;;;;;;5078875;28;20206;-89
2023/07/13 00:29:30;;;;;;;5.40;3.85;;;14.50;99.90;;;;;;5072826;28;20200;-87
2023/07/13 00:32:01;;;;;;;6.75;4.00;;;14.60;99.90;;;;;;5055298;28;20200;-89
2023/07/13 00:34:34;;;;;;;6.00;3.03;;;14.70;99.90;;;;;;5057685;28;20189;-89
2023/07/13 00:37:06;;;;;;;8.52;2.90;;;14.70;99.90;;;;;;5073969;28;20685;-90
2023/07/13 00:39:37;;;;;;;7.00;3.20;;;14.80;99.90;;;;;;5074176;28;20285;-89
2023/07/13 00:42:11;;;;;;;6.82;2.65;;;14.90;99.90;;;;;;5073711;28;20670;-89
2023/07/13 00:44:46;;;;;;;6.63;3.13;;;14.90;99.90;;;;;;5039174;28;20247;-91
2023/07/13 00:47:20;;;;;;;8.98;3.10;;;15.10;99.90;;;;;;5074494;28;20723;-91
2023/07/13 00:49:51;;;;;;;6.80;2.80;;;15.10;99.90;;;;;;5074039;28;20208;-90
2023/07/13 00:52:22;;;;;;;8.32;3.28;;;15.20;99.90;;;;;;5056700;28;20202;-90
2023/07/13 00:54:53;;;;;;;6.88;2.70;;;15.30;99.90;;;;;;5074217;28;20188;-91
2023/07/13 00:57:27;;;;;;;8.27;2.97;;;15.40;99.90;;;;;;5074215;28;20196;-92
2023/07/13 01:00:04;;;;;;;5.28;3.10;;;15.40;99.90;;;;;;5075001;28;20213;-92
2023/07/13 01:02:36;;;;;;;8.57;2.90;;;15.40;99.90;;;;;;5074139;28;20195;-92
2023/07/13 01:05:14;;;;;;;5.53;2.72;;;15.50;99.90;;;;;;5073779;28;20192;-90
2023/07/13 01:07:48;;;;;;;3.83;2.72;;;15.60;99.90;;;;;;5054743;28;20253;-90
2023/07/13 01:10:20;;;;;;;4.97;2.75;;;15.70;99.90;;;;;;5053010;28;20231;-89
2023/07/13 01:12:56;;;;;;;5.55;2.67;;;15.80;99.90;;;;;;5073104;28;20203;-91
2023/07/13 01:15:40;;;;;;;7.97;2.83;;;15.80;99.90;;;;;;5073991;28;20589;-90
2023/07/13 01:18:13;;;;;;;8.38;2.70;;;16.00;99.90;;;;;;5074740;28;20190;-90
2023/07/13 01:20:54;;;;;;;5.47;2.55;;;16.10;99.90;;;;;;5055364;28;20808;-91
2023/07/13 01:23:25;;;;;;;5.43;2.70;;;16.20;99.90;;;;;;5073343;28;20282;-90
2023/07/13 01:25:59;;;;;;;5.68;2.70;;;16.20;99.90;;;;;;5072954;28;20298;-91
2023/07/13 01:28:36;;;;;;;5.90;2.78;;;16.30;99.90;;;;;;5056797;28;20206;-89
2023/07/13 01:31:09;;;;;;;8.43;2.90;;;16.50;99.90;;;;;;5078085;28;20261;-89
2023/07/13 01:33:41;;;;;;;5.80;2.80;;;16.50;99.90;;;;;;5087636;28;20203;-91
2023/07/13 01:36:15;;;;;;;6.35;2.72;;;16.50;99.90;;;;;;5074338;28;20222;-90
2023/07/13 01:38:47;;;;;;;5.50;2.60;;;16.50;99.90;;;;;;5075029;28;20294;-90
2023/07/13 01:41:26;;;;;;;6.82;2.38;;;16.60;99.90;;;;;;5086433;28;20198;-90
2023/07/13 01:43:58;;;;;;;4.15;2.20;;;16.60;99.90;;;;;;5042768;28;20212;-90
2023/07/13 01:46:29;;;;;;;3.45;1.90;;;16.60;99.90;;;;;;5068912;28;20580;-91
2023/07/13 01:49:02;;;;;;;4.80;2.00;;;16.50;99.90;;;;;;5073025;28;20224;-91
2023/07/13 01:51:36;;;;;;;3.97;1.65;;;16.60;99.90;;;;;;5072400;28;20600;-89
2023/07/13 01:54:07;;;;;;;4.00;2.15;;;16.80;99.90;;;;;;5054945;28;20204;-91
2023/07/13 01:56:39;;;;;;;5.18;1.98;;;16.90;99.90;;;;;;5072446;28;20207;-90
2023/07/13 01:59:11;;;;;;;5.80;1.88;;;17.00;99.90;;;;;;5074044;28;20199;-89
2023/07/13 02:01:43;;;;;;;5.78;1.98;;;17.00;99.90;;;;;;5073235;28;20210;-90
2023/07/13 02:04:15;;;;;;;4.07;2.10;;;17.20;99.90;;;;;;5066506;28;20195;-90
2023/07/13 02:06:49;;;;;;;3.25;1.80;;;17.30;99.90;;;;;;5072692;28;20266;-90
2023/07/13 02:09:23;;;;;;;6.25;1.70;;;17.30;99.90;;;;;;5059044;28;20203;-87
2023/07/13 02:11:55;;;;;;;7.07;2.47;;;17.30;99.90;;;;;;5063175;28;20221;-89
2023/07/13 02:14:28;;;;;;;5.57;2.00;;;17.50;99.90;;;;;;5072736;28;20678;-89
2023/07/13 02:16:59;;;;;;;3.08;1.75;;;17.50;99.90;;;;;;5072386;28;20658;-89
2023/07/13 02:19:30;;;;;;;1.98;1.20;;;17.70;99.90;;;;;;5073537;28;20633;-89
2023/07/13 02:22:04;;;;;;;3.55;1.20;;;17.90;99.90;;;;;;5081412;28;20203;-88
2023/07/13 02:24:38;;;;;;;2.97;1.30;;;18.00;99.90;;;;;;5090328;28;20184;-89
2023/07/13 02:27:11;;;;;;;3.72;1.50;;;18.10;99.90;;;;;;5037853;28;20242;-89
2023/07/13 02:29:44;;;;;;;4.53;1.50;;;18.10;99.90;;;;;;5044502;28;20188;-89
2023/07/13 02:32:16;;;;;;;2.13;1.27;;;18.30;99.90;;;;;;5072457;28;20230;-89
2023/07/13 02:34:47;;;;;;;1.58;1.10;;;18.40;99.90;;;;;;5072960;28;20208;-89
2023/07/13 02:37:24;;;;;;;2.92;1.27;;;18.40;99.90;;;;;;5074233;28;20267;-90
2023/07/13 02:39:55;;;;;;;3.10;1.20;;;18.50;99.90;;;;;;5056689;28;20197;-90
2023/07/13 02:42:26;;;;;;;2.90;1.40;;;18.60;99.90;;;;;;5083088;28;20239;-88
2023/07/13 02:44:59;;;;;;;1.17;1.00;;;18.60;99.90;;;;;;5072902;28;20188;-88
2023/07/13 02:47:32;;;;;;;3.55;1.10;;;18.60;99.90;;;;;;5071902;28;20237;-88
2023/07/13 02:50:04;;;;;;;4.55;1.42;;;18.70;99.90;;;;;;5081520;28;20599;-90
2023/07/13 02:52:37;;;;;;;2.67;1.15;;;18.70;99.90;;;;;;5074712;28;20710;-90
2023/07/13 02:55:09;;;;;;;1.92;1.30;;;18.70;99.90;;;;;;5081440;28;20203;-89
2023/07/13 02:57:40;;;;;;;1.42;1.20;;;18.80;99.90;;;;;;5076354;28;20190;-88
2023/07/13 03:00:13;;;;;;;2.25;1.20;;;18.80;99.90;;;;;;5073559;28;20192;-89
2023/07/13 03:02:45;;;;;;;2.53;1.25;;;18.90;99.90;;;;;;5095560;28;20223;-89
2023/07/13 03:05:20;;;;;;;1.98;1.27;;;18.80;99.90;;;;;;5082157;28;20199;-90
2023/07/13 03:07:55;;;;;;;3.20;1.00;;;18.80;99.90;;;;;;5095395;28;20191;-89
2023/07/13 03:10:29;;;;;;;2.60;1.42;;;18.80;99.90;;;;;;5081691;28;20219;-90
2023/07/13 03:13:00;;;;;;;3.95;1.30;;;18.80;99.90;;;;;;5087207;28;20204;-90
2023/07/13 03:15:35;;;;;;;2.20;1.10;;;18.80;99.90;;;;;;5076686;28;20203;-89
2023/07/13 03:18:06;;;;;;;5.53;1.08;;;19.00;99.90;;;;;;5077983;28;20187;-90
2023/07/13 03:20:41;;;;;;;1.83;1.17;;;19.00;99.90;;;;;;5074197;28;20208;-89
2023/07/13 03:23:16;;;;;;;5.68;1.13;;;19.00;99.90;;;;;;5043114;28;20196;-91
2023/07/13 03:25:49;;;;;;;3.60;1.10;;;19.00;99.90;;;;;;5077517;28;20192;-92
2023/07/13 03:28:21;;;;;;;6.35;1.70;;;19.10;99.90;;;;;;5079434;28;20196;-90
2023/07/13 03:30:54;;;;;;;1.80;1.00;;;19.10;99.90;;;;;;5074585;28;20232;-91
2023/07/13 03:33:25;;;;;;;5.80;1.23;;;19.10;99.30;;;;;;5060789;28;20257;-91
2023/07/13 03:35:57;;;;;;;2.90;1.10;;;19.10;99.00;;;;;;5075265;28;20210;-91
2023/07/13 03:38:33;;;;;;;2.63;1.27;;;19.10;98.90;;;;;;5076243;28;20211;-90
2023/07/13 03:41:05;;;;;;;1.42;0.90;;;19.20;98.60;;;;;;5058763;28;20196;-90
2023/07/13 03:43:37;;;;;;;2.65;1.17;;;19.20;98.30;;;;;;5076944;28;20215;-90
2023/07/13 03:46:09;;;;;;;1.63;1.00;;;19.20;98.00;;;;;;5075698;28;20557;-90
2023/07/13 03:48:42;;;;;;;3.63;1.20;;;19.20;97.50;;;;;;5075588;28;20239;-88
2023/07/13 03:51:14;;;;;;;2.63;0.82;;;19.30;97.10;;;;;;5074813;28;20265;-88
2023/07/13 03:53:48;;;;;;;1.25;1.00;;;19.20;96.90;;;;;;5077526;28;20188;-89
2023/07/13 03:56:22;;;;;;;2.90;0.93;;;19.30;97.40;;;;;;5077845;28;20204;-89
2023/07/13 03:58:54;;;;;;;2.42;0.93;;;19.20;96.90;;;;;;5078245;28;20199;-89
2023/07/13 04:01:26;;;;;;;1.90;0.98;;;19.30;97.00;;;;;;5075089;28;20211;-87
2023/07/13 04:03:59;;;;;;;2.00;1.20;;;19.40;97.40;;;;;;5075621;28;20712;-90
2023/07/13 04:06:33;;;;;;;3.47;1.60;;;19.40;97.40;;;;;;5063173;28;20214;-89
2023/07/13 04:09:09;;;;;;;2.08;1.10;;;19.50;96.60;;;;;;5070983;28;20194;-89
2023/07/13 04:11:41;;;;;;;3.38;1.20;;;19.50;95.30;;;;;;5055541;28;20764;-88
2023/07/13 04:14:14;;;;;;;2.78;0.90;;;19.50;94.70;;;;;;5056986;28;20232;-89
2023/07/13 04:16:46;;;;;;;2.53;1.08;;;19.50;94.70;;;;;;5091882;28;20194;-88
2023/07/13 04:19:18;;;;;;;2.42;1.15;;;19.60;95.70;;;;;;5087671;28;20196;-89
2023/07/13 04:21:51;;;;;;;3.08;1.15;;;19.60;93.60;;;;;;5074856;28;20224;-89
2023/07/13 04:24:26;;;;;;;1.90;1.00;;;19.60;93.30;;;;;;5074903;28;20211;-88
2023/07/13 04:26:59;;;;;;;1.40;0.93;;;19.60;93.20;;;;;;5074693;28;20184;-89
2023/07/13 04:29:31;;;;;;;2.50;1.13;;;19.60;93.50;;;;;;5073900;28;20204;-89
2023/07/13 04:32:05;;;;;;;4.38;1.23;;;19.60;93.50;;;;;;5074991;28;20211;-90
2023/07/13 04:34:37;;;;;;;5.53;1.15;;;19.50;92.90;;;;;;5075901;28;20663;-88
2023/07/13 04:37:09;;;;;;;4.45;1.00;;;19.60;93.30;;;;;;5075126;28;20235;-90
2023/07/13 04:39:47;;;;;;;1.40;1.00;;;19.60;89.60;;;;;;5074235;28;20206;-90
2023/07/13 04:42:18;;;;;;;2.38;0.80;;;19.60;89.90;;;;;;5075012;28;20207;-91
2023/07/13 04:44:52;;;;;;;1.33;0.73;;;19.70;88.40;;;;;;5074626;28;20292;-89
2023/07/13 04:47:27;;;;;;;1.15;0.80;;;19.80;88.80;;;;;;5074386;28;20200;-90
2023/07/13 04:50:00;;;;;;;2.45;0.70;;;19.80;88.40;;;;;;5073150;28;20223;-88
2023/07/13 04:52:33;;;;;;;0.80;0.70;;;19.80;88.30;;;;;;5052978;28;20274;-88
2023/07/13 04:55:09;;;;;;;0.95;0.80;;;19.90;88.20;;;;;;5054337;28;20220;-89
2023/07/13 04:57:41;;;;;;;1.85;0.80;;;19.90;89.30;;;;;;5071656;28;20192;-88
2023/07/13 05:00:15;;;;;;;1.30;0.90;;;19.90;89.30;;;;;;5074753;28;20197;-88
2023/07/13 05:02:51;;;;;;;1.27;0.80;;;19.90;89.30;;;;;;5074649;28;20667;-89
2023/07/13 05:05:22;;;;;;;1.00;0.90;;;20.00;90.10;;;;;;5073944;28;20226;-90
2023/07/13 05:07:54;;;;;;;1.33;0.85;;;20.00;90.00;;;;;;5074222;28;20203;-90
2023/07/13 05:10:31;;;;;;;1.13;0.70;;;19.90;90.00;;;;;;5074785;28;20192;-90
2023/07/13 05:13:02;;;;;;;4.72;0.90;;;19.90;90.20;;;;;;5080483;28;20227;-90
2023/07/13 05:15:39;;;;;;;1.88;0.80;;;20.00;90.70;;;;;;5068274;28;20268;-89
2023/07/13 05:18:12;;;;;;;1.35;1.02;;;19.90;90.90;;;;;;5056229;28;20673;-88
2023/07/13 05:20:43;;;;;;;2.92;0.95;;;19.90;91.80;;;;;;5079708;28;20238;-88
2023/07/13 05:23:14;;;;;;;1.10;0.80;;;19.90;92.60;;;;;;5075224;28;20203;-89
2023/07/13 05:25:48;;;;;;;3.10;0.90;;;19.90;92.20;;;;;;5077774;28;20960;-89
2023/07/13 05:28:20;;;;;;;2.28;0.80;;;19.90;92.10;;;;;;5080951;28;20215;-89
2023/07/13 05:30:53;;;;;;;2.30;1.10;;;19.90;91.80;;;;;;5074876;28;20631;-90
2023/07/13 05:33:27;;;;;;;2.45;0.98;;;19.80;92.60;;;;;;5073397;28;20204;-88
2023/07/13 05:36:02;;;;;;;2.53;1.20;;;19.80;93.40;;;;;;5073462;28;20550;-90
2023/07/13 05:38:34;;;;;;;1.65;1.20;;;19.80;94.30;;;;;;5074122;28;20203;-90
2023/07/13 05:41:09;;;;;;;2.97;1.35;;;19.70;95.10;;;;;;5081155;28;20192;-89
2023/07/13 05:43:47;;;;;;;4.13;1.40;;;19.70;96.00;;;;;;5073215;28;20208;-89
2023/07/13 05:46:19;;;;;;;2.40;1.45;;;19.70;97.70;;;;;;5059191;28;20192;-91
2023/07/13 05:48:54;;;;;;;4.80;1.40;;;19.60;99.00;;;;;;5073148;28;20235;-91
2023/07/13 05:51:26;;;;;;;3.75;1.98;;;19.60;99.90;;;;;;5056787;28;20352;-91
2023/07/13 05:53:58;;;;;;;3.05;1.77;;;19.60;99.90;;;;;;5056714;28;20207;-92
2023/07/13 05:56:34;;;;;;;3.45;1.70;;;19.50;99.90;;;;;;5074133;28;20192;-91
2023/07/13 05:59:05;;;;;;;3.08;1.50;;;19.60;99.90;;;;;;5073919;28;20673;-90
2023/07/13 06:01:37;;;;;;;4.10;1.80;;;19.60;99.90;;;;;;5073731;28;20208;-91
2023/07/13 06:04:09;;;;;;;5.22;1.75;;;19.60;99.90;;;;;;5073989;28;20689;-90
2023/07/13 06:06:43;;;;;;;4.32;1.73;;;19.60;99.90;;;;;;5056976;28;20204;-90
2023/07/13 06:09:15;;;;;;;3.25;1.88;;;19.60;99.90;;;;;;5077576;28;20336;-89
2023/07/13 06:11:51;;;;;;;3.60;1.80;;;19.60;99.90;;;;;;5095592;28;20214;-91
2023/07/13 06:14:24;;;;;;;6.38;2.03;;;19.60;99.90;;;;;;5078558;28;20200;-90
2023/07/13 06:16:56;;;;;;;4.22;1.90;;;19.60;99.90;;;;;;5062294;28;20223;-90
2023/07/13 06:19:29;;;;;;;2.60;1.80;;;19.60;99.90;;;;;;5045890;28;20192;-90
2023/07/13 06:22:00;;;;;;;4.35;1.85;;;19.60;99.90;;;;;;5053664;28;20197;-91
2023/07/13 06:24:33;;;;;;;2.80;1.70;;;19.70;99.90;;;;;;5053019;28;20192;-92
2023/07/13 06:27:06;;;;;;;2.50;1.58;;;19.80;99.90;;;;;;5050505;28;20203;-92
2023/07/13 06:29:39;;;;;;;3.88;1.63;;;19.80;99.90;;;;;;5054510;28;20904;-91
2023/07/13 06:32:12;;;;;;;2.28;1.50;;;19.90;99.90;;;;;;5053873;28;20324;-91
2023/07/13 06:34:45;;;;;;;2.60;1.30;;;19.80;99.90;;;;;;5072755;28;20712;-91
2023/07/13 06:37:17;;;;;;;2.53;1.33;;;19.80;99.90;;;;;;5069774;28;20671;-92
2023/07/13 06:39:49;;;;;;;2.75;1.30;;;19.70;99.90;;;;;;5077390;28;20195;-91
2023/07/13 06:42:23;;;;;;;2.25;1.45;;;19.60;99.90;;;;;;5077635;28;20199;-92
2023/07/13 06:44:56;;;;;;;3.70;1.40;;;19.50;99.90;;;;;;5077807;28;20566;-90
2023/07/13 06:47:30;;;;;;;2.50;1.70;;;19.30;99.90;;;;;;5076531;28;20206;-90
2023/07/13 06:50:03;;;;;;;4.03;1.50;;;19.30;99.90;;;;;;5077740;28;20204;-90
2023/07/13 06:52:35;;;;;;;3.97;1.33;;;19.10;99.90;;;;;;5076845;28;20564;-90
2023/07/13 06:55:07;;;;;;;3.47;1.40;;;19.00;99.90;;;;;;5097002;28;20194;-89
2023/07/13 06:57:42;;;;;;;3.80;1.58;;;18.90;99.90;;;;;;5100020;28;20196;-89
2023/07/13 07:00:15;;;;;;;2.78;1.48;;;18.80;99.90;;;;;;5098656;28;20190;-90
2023/07/13 07:02:47;;;;;;;4.13;1.67;;;18.70;99.90;;;;;;5096348;28;20184;-90
2023/07/13 07:05:21;;;;;;;4.30;1.65;;;18.60;99.90;;;;;;5085339;28;20192;-90
2023/07/13 07:07:52;;;;;;;6.03;1.38;;;18.50;99.90;;;;;;5060638;28;20203;-90
2023/07/13 07:10:24;;;;;;;4.50;1.70;;;18.40;99.90;;;;;;5076536;28;20200;-90
2023/07/13 07:12:59;;;;;;;4.70;1.63;;;18.30;99.90;;;;;;5074921;28;20223;-90
2023/07/13 07:15:30;;;;;;;4.07;1.80;;;18.30;99.90;;;;;;5057068;28;20204;-91
2023/07/13 07:18:03;;;;;;;3.83;1.60;;;18.20;99.90;;;;;;5040076;28;20203;-91
2023/07/13 07:20:35;;;;;;;3.05;1.58;;;18.10;99.90;;;;;;5064603;28;20251;-91
2023/07/13 07:23:08;;;;;;;2.88;1.58;;;18.10;99.90;;;;;;5065270;28;20197;-90
2023/07/13 07:25:41;;;;;;;3.40;1.77;;;18.00;99.90;;;;;;5032609;28;20227;-90
2023/07/13 07:28:18;;;;;;;3.50;1.70;;;17.90;99.90;;;;;;5077984;28;20283;-88
2023/07/13 07:30:50;;;;;;;3.17;1.70;;;17.90;99.90;;;;;;5076804;28;20196;-91
2023/07/13 07:33:22;;;;;;;5.32;1.65;;;17.80;99.90;;;;;;5065536;28;20230;-91
2023/07/13 07:35:54;;;;;;;4.32;1.90;;;17.80;99.90;;;;;;5060180;28;20609;-91
2023/07/13 07:38:26;;;;;;;3.40;1.80;;;17.70;99.90;;;;;;5065801;28;20185;-91
2023/07/13 07:40:58;;;;;;;3.72;1.83;;;17.70;99.90;;;;;;5085535;28;20188;-92
2023/07/13 07:43:36;;;;;;;5.40;2.35;;;17.60;99.90;;;;;;5075991;28;20215;-89
2023/07/13 07:46:08;;;;;;;2.85;1.90;;;17.60;99.90;;;;;;5077149;28;20223;-90
2023/07/13 07:48:39;;;;;;;5.03;1.80;;;17.50;99.90;;;;;;5086957;28;20220;-90
2023/07/13 07:51:13;;;;;;;3.30;1.90;;;17.50;99.90;;;;;;5082725;28;20801;-90
2023/07/13 07:53:45;;;;;;;2.95;1.38;;;17.40;99.90;;;;;;5077625;28;20253;-90
2023/07/13 07:56:17;;;;;;;2.13;1.40;;;17.40;99.90;;;;;;5079793;28;20192;-90
2023/07/13 07:58:51;;;;;;;3.53;1.30;;;17.40;99.90;;;;;;5076855;28;20207;-90
2023/07/13 08:01:22;;;;;;;2.17;1.25;;;17.40;99.90;;;;;;5076764;28;20195;-90
2023/07/13 08:03:54;;;;;;;5.43;1.80;;;17.40;99.90;;;;;;5093669;28;20195;-90
2023/07/13 08:06:26;;;;;;;2.63;1.58;;;17.40;99.90;;;;;;5086763;28;20200;-89
2023/07/13 08:08:58;;;;;;;3.35;1.35;;;17.40;99.90;;;;;;5065204;28;20209;-91
2023/07/13 08:11:29;;;;;;;2.25;1.63;;;17.30;99.90;;;;;;5038625;28;20227;-91
2023/07/13 08:14:09;;;;;;;2.83;1.50;;;17.30;99.90;;;;;;5055680;28;20227;-89
2023/07/13 08:16:43;;;;;;;6.10;2.05;;;17.30;99.90;;;;;;5055265;28;20244;-89
2023/07/13 08:19:15;;;;;;;2.63;1.58;;;17.20;99.90;;;;;;5066744;28;20688;-89
2023/07/13 08:21:48;;;;;;;1.83;1.60;;;17.20;99.90;;;;;;5075800;28;20211;-90
2023/07/13 08:24:21;;;;;;;1.70;1.60;;;17.10;99.90;;;;;;5064697;28;20193;-90
2023/07/13 08:26:55;;;;;;;3.78;1.67;;;17.10;99.90;;;;;;5055130;28;20582;-87
2023/07/13 08:29:31;;;;;;;2.88;1.63;;;17.10;99.90;;;;;;5055048;28;20612;-90
2023/07/13 08:32:05;;;;;;;3.90;1.48;;;17.00;99.90;;;;;;5056652;28;20204;-91
2023/07/13 08:34:40;;;;;;;2.20;1.40;;;17.00;99.90;;;;;;5054497;28;20207;-88
2023/07/13 08:37:14;;;;;;;4.03;1.45;;;17.00;99.90;;;;;;5054757;28;20195;-90
2023/07/13 08:39:47;;;;;;;2.45;1.52;;;17.00;99.90;;;;;;5055342;28;20631;-88
2023/07/13 08:42:30;;;;;;;3.00;1.73;;;16.90;99.90;;;;;;5060747;28;20192;-87
2023/07/13 08:45:11;;;;;;;2.30;1.42;;;16.90;99.90;;;;;;5083213;28;20259;-88
2023/07/13 08:47:48;;;;;;;2.83;1.70;;;16.90;99.90;;;;;;5076307;28;20244;-89
2023/07/13 08:50:23;;;;;;;3.45;1.70;;;16.90;99.90;;;;;;5074335;28;20219;-89
2023/07/13 08:52:55;;;;;;;2.95;1.70;;;16.80;99.90;;;;;;5073132;28;20227;-89
2023/07/13 08:55:31;;;;;;;2.42;1.65;;;16.90;99.90;;;;;;5073699;28;20208;-89
2023/07/13 08:58:07;;;;;;;2.90;2.00;;;16.80;99.90;;;;;;5076065;28;20219;-89
2023/07/13 09:00:50;;;;;;;3.80;2.00;;;16.80;99.90;;;;;;5078276;28;20199;-89
2023/07/13 09:03:26;;;;;;;3.47;2.05;;;16.80;99.90;;;;;;5080414;28;20287;-89
2023/07/13 09:06:02;;;;;;;6.00;2.08;;;16.80;99.90;;;;;;5081814;28;20198;-88
2023/07/13 09:08:46;;;;;;;2.78;1.80;;;16.80;99.90;;;;;;5065982;28;20222;-89
2023/07/13 09:11:32;;;;;;;3.40;2.05;;;16.70;99.90;;;;;;5056146;28;20204;-89
2023/07/13 09:14:16;;;;;;;3.35;2.22;;;16.70;99.90;;;;;;5055688;28;20216;-88
2023/07/13 09:16:52;;;;;;;3.53;2.22;;;16.70;99.90;;;;;;5075582;28;20601;-82
2023/07/13 09:19:34;;;;;;;4.10;2.40;;;16.70;99.90;;;;;;5077724;28;20724;-87
2023/07/13 09:22:08;;;;;;;4.50;2.70;;;16.70;99.90;;;;;;5081471;28;20203;-89
2023/07/13 09:24:45;;;;;;;6.45;2.97;;;16.60;99.90;;;;;;5072904;28;20188;-88
2023/07/13 09:27:24;;;;;;;3.38;2.75;;;16.60;99.90;;;;;;5074378;28;20701;-89
2023/07/13 09:30:07;;;;;;;3.67;2.90;;;16.60;99.90;;;;;;5074247;28;20200;-88
2023/07/13 09:32:43;;;;;;;5.97;3.47;;;16.60;99.90;;;;;;5072162;28;20220;-85
2023/07/13 09:35:17;;;;;;;29.08;19.73;;;16.50;99.90;;;;;;5071112;28;20219;-87
2023/07/13 09:37:49;;;;;;;35.20;24.67;;;16.50;99.90;;;;;;5071427;28;20179;-88
2023/07/13 09:40:27;;;;;;;21.80;15.05;;;16.50;99.90;;;;;;5071620;28;20207;-87
2023/07/13 09:43:01;;;;;;;15.23;11.85;;;16.40;99.90;;;;;;5067173;28;20824;-87
2023/07/13 09:45:33;;;;;;;18.80;14.63;;;16.40;99.90;;;;;;5053838;28;20580;-87
2023/07/13 09:48:12;;;;;;;24.10;17.92;;;16.30;99.90;;;;;;4976026;28;2725414;-89
2023/07/13 09:50:45;;;;;;;34.50;26.45;;;16.30;99.90;;;;;;5071662;28;20224;-89
2023/07/13 09:53:18;;;;;;;26.60;20.88;;;16.20;99.90;;;;;;5072428;28;20208;-87
2023/07/13 09:55:50;;;;;;;19.45;15.95;;;16.20;99.90;;;;;;5072492;28;20556;-89
2023/07/13 09:58:24;;;;;;;14.90;10.45;;;16.20;99.90;;;;;;5092326;28;20215;-88
2023/07/13 10:01:00;;;;;;;12.63;10.82;;;16.20;99.90;;;;;;5093591;28;20279;-88
2023/07/13 10:03:37;;;;;;;10.50;7.93;;;16.20;99.90;;;;;;5092346;28;20183;-88
2023/07/13 10:06:17;;;;;;;7.68;4.90;;;16.10;99.90;;;;;;5074627;28;20976;-87
2023/07/13 10:08:50;;;;;;;5.50;4.00;;;16.00;99.90;;;;;;5071813;28;20200;-89
2023/07/13 10:11:25;;;;;;;5.78;3.53;;;16.00;99.90;;;;;;5051919;28;20758;-87
2023/07/13 10:13:59;;;;;;;4.95;3.53;;;16.00;99.90;;;;;;5055257;28;20265;-86
2023/07/13 10:16:43;;;;;;;5.10;3.50;;;16.00;99.90;;;;;;5072226;28;20202;-88
2023/07/13 10:19:24;;;;;;;5.10;2.90;;;16.00;99.90;;;;;;5060686;28;20643;-88
2023/07/13 10:21:59;;;;;;;3.50;2.65;;;16.00;99.90;;;;;;5075688;28;20184;-89
2023/07/13 10:24:33;;;;;;;3.28;2.35;;;16.00;99.90;;;;;;5071915;28;20218;-89
2023/07/13 10:27:18;;;;;;;3.90;2.47;;;16.00;99.90;;;;;;5071699;28;20180;-89
2023/07/13 10:29:53;;;;;;;4.03;2.38;;;16.00;99.90;;;;;;5072515;28;20202;-90
2023/07/13 10:32:28;;;;;;;4.25;2.58;;;16.00;99.90;;;;;;5072718;28;20199;-89
2023/07/13 10:35:04;;;;;;;3.78;2.50;;;16.00;99.90;;;;;;5071501;28;20210;-88
2023/07/13 10:37:45;;;;;;;3.50;2.22;;;16.10;99.90;;;;;;5072026;28;20191;-90
2023/07/13 10:40:19;;;;;;;3.20;2.30;;;16.10;99.90;;;;;;5073363;28;20264;-89
2023/07/13 10:42:54;;;;;;;3.58;2.80;;;16.10;99.90;;;;;;5073153;28;20194;-89
2023/07/13 10:45:28;;;;;;;5.07;3.40;;;16.00;99.90;;;;;;5088373;28;20639;-88
2023/07/13 10:48:01;;;;;;;4.60;3.30;;;16.00;99.90;;;;;;5094403;28;20231;-87
2023/07/13 10:50:39;;;;;;;5.45;3.90;;;15.90;99.90;;;;;;5090753;28;20216;-88
2023/07/13 10:53:25;;;;;;;4.93;4.28;;;15.90;99.90;;;;;;5074649;28;20292;-89
2023/07/13 10:56:05;;;;;;;5.68;3.83;;;15.90;99.90;;;;;;5062394;28;20195;-90
2023/07/13 10:58:41;;;;;;;5.35;3.45;;;15.80;99.90;;;;;;5053171;28;20193;-90
2023/07/13 11:01:17;;;;;;;4.65;3.00;;;15.80;99.90;;;;;;5072562;28;20275;-89
2023/07/13 11:03:58;;;;;;;3.92;2.97;;;15.80;99.90;;;;;;5072548;28;20180;-89
2023/07/13 11:06:41;;;;;;;3.58;2.95;;;15.70;99.90;;;;;;5052483;28;20643;-89
2023/07/13 11:09:37;;;;;;;3.35;2.78;;;15.70;99.90;;;;;;5070415;28;20278;-89
2023/07/13 11:12:28;;;;;;;3.70;2.50;;;15.60;99.90;;;;;;5055875;28;20660;-89
2023/07/13 11:15:09;;;;;;;5.13;2.60;;;15.60;99.90;;;;;;5061474;28;20315;-91
2023/07/13 11:17:49;;;;;;;2.95;2.58;;;15.60;99.90;;;;;;5087918;28;20254;-91
2023/07/13 11:20:36;;;;;;;3.88;2.60;;;15.60;99.90;;;;;;5067416;28;20193;-90
2023/07/13 11:23:24;;;;;;;2.47;2.28;;;15.50;99.90;;;;;;5055306;28;20246;-90
2023/07/13 11:25:55;;;;;;;4.95;2.58;;;15.50;99.90;;;;;;5054904;28;20679;-90
2023/07/13 11:28:30;;;;;;;3.42;2.92;;;15.50;99.90;;;;;;5056218;28;20206;-89
2023/07/13 11:31:19;;;;;;;4.07;2.92;;;15.40;99.90;;;;;;5062763;28;20229;-88
2023/07/13 11:34:00;;;;;;;3.80;2.78;;;15.40;99.90;;;;;;5076725;28;20228;-90
2023/07/13 11:36:41;;;;;;;5.65;3.20;;;15.40;99.90;;;;;;5057369;28;20200;-89
2023/07/13 11:39:24;;;;;;;6.93;3.70;;;15.30;99.90;;;;;;5054503;28;20198;-89
2023/07/13 11:41:58;;;;;;;4.60;3.50;;;15.30;99.90;;;;;;5055949;28;20216;-89
2023/07/13 11:44:31;;;;;;;5.38;3.92;;;15.20;99.90;;;;;;5075161;28;20207;-88
2023/07/13 11:47:13;;;;;;;6.05;4.18;;;15.20;99.90;;;;;;5075884;28;20192;-89
2023/07/13 11:49:47;;;;;;;6.63;4.97;;;15.20;99.90;;;;;;5083524;28;20192;-88
2023/07/13 11:52:21;;;;;;;7.15;5.03;;;15.20;99.90;;;;;;5096261;28;20221;-88
2023/07/13 11:54:57;;;;;;;7.07;5.15;;;15.10;99.90;;;;;;5078155;28;20298;-86
2023/07/13 11:57:33;;;;;;;6.25;4.50;;;15.10;99.90;;;;;;5073541;28;20627;-90
2023/07/13 12:00:07;;;;;;;7.07;5.13;;;15.10;99.90;;;;;;5075009;28;20282;-90
2023/07/13 12:02:41;;;;;;;7.55;5.07;;;15.10;99.90;;;;;;5075564;28;20253;-90
2023/07/13 12:05:16;;;;;;;5.55;4.35;;;15.10;99.90;;;;;;5058037;28;20200;-88
2023/07/13 12:07:47;;;;;;;5.75;4.50;;;15.10;99.90;;;;;;5074535;28;20284;-89
2023/07/13 12:10:29;;;;;;;6.22;4.20;;;15.10;99.90;;;;;;5075265;28;20200;-89
2023/07/13 12:13:04;;;;;;;6.78;4.40;;;15.10;99.90;;;;;;5075517;28;20212;-89
2023/07/13 12:15:46;;;;;;;4.53;3.63;;;15.10;99.90;;;;;;5075626;28;20210;-89
2023/07/13 12:18:20;;;;;;;5.97;3.90;;;15.10;99.90;;;;;;5064231;28;20257;-88
2023/07/13 12:20:53;;;;;;;6.20;4.15;;;15.10;99.90;;;;;;5074763;28;20211;-89
2023/07/13 12:23:28;;;;;;;5.18;3.72;;;15.10;99.90;;;;;;5079019;28;20663;-88
2023/07/13 12:26:12;;;;;;;6.25;3.83;;;15.20;99.90;;;;;;5079886;28;20194;-88
2023/07/13 12:28:58;;;;;;;5.13;3.50;;;15.10;99.90;;;;;;5078659;28;20212;-88
2023/07/13 12:31:40;;;;;;;5.68;4.10;;;15.10;99.90;;;;;;5083280;28;20202;-88
2023/07/13 12:34:17;;;;;;;6.05;3.90;;;15.00;99.90;;;;;;5066735;28;20251;-89
2023/07/13 12:36:53;;;;;;;4.97;3.70;;;15.00;99.90;;;;;;5084299;28;20188;-90
2023/07/13 12:39:26;;;;;;;5.25;3.78;;;15.00;99.90;;;;;;5079529;28;20199;-90
2023/07/13 12:42:24;;;;;;;6.32;3.90;;;15.00;99.90;;;;;;5079051;28;20199;-88
2023/07/13 12:45:12;;;;;;;5.25;3.60;;;14.90;99.90;;;;;;5082385;28;20580;-91
2023/07/13 12:47:47;;;;;;;4.05;3.40;;;14.90;99.90;;;;;;5079702;28;20220;-90
2023/07/13 12:50:32;;;;;;;4.88;3.63;;;14.80;99.90;;;;;;5081149;28;20284;-91
2023/07/13 12:53:11;;;;;;;4.68;3.60;;;14.80;99.90;;;;;;5084609;28;20231;-90
2023/07/13 12:55:52;;;;;;;5.05;3.42;;;14.80;99.90;;;;;;5080637;28;20236;-90
2023/07/13 12:58:46;;;;;;;6.15;3.78;;;14.70;99.90;;;;;;5061371;28;20200;-91
2023/07/13 13:01:27;;;;;;;5.45;3.72;;;14.70;99.90;;;;;;5067132;28;20198;-91
2023/07/13 13:03:58;;;;;;;5.95;3.50;;;14.60;99.90;;;;;;5080207;28;20200;-90
2023/07/13 13:06:35;;;;;;;4.43;3.50;;;14.60;99.90;;;;;;5080256;28;20207;-90
2023/07/13 13:09:15;;;;;;;6.13;3.67;;;14.60;99.90;;;;;;5060996;28;20233;-90
2023/07/13 13:14:38;;;;;;;5.35;3.28;;;14.60;99.90;;;;;;5083999;28;20231;-90
2023/07/13 13:17:27;;;;;;;4.03;3.20;;;14.60;99.90;;;;;;5076964;28;20184;-91
2023/07/13 13:20:06;;;;;;;5.25;3.28;;;14.60;99.90;;;;;;5078041;28;20223;-90
2023/07/13 13:22:39;;;;;;;4.53;3.10;;;14.50;99.90;;;;;;5078432;28;20223;-92
2023/07/13 13:25:18;;;;;;;3.78;2.67;;;14.60;99.90;;;;;;5074567;28;20200;-93
2023/07/13 13:30:43;;;;;;;3.47;2.63;;;14.60;99.90;;;;;;5080346;28;20195;-91